Time;durP1;ratioP1;P1;durP2;ratioP2;P2;SDS_P1;SDS_P2;PMS_P1;PMS_P2;Temp;Humidity;BMP_temperature;BMP_pressure;BME280_temperature;BME280_humidity;BME280_pressure;Samples;Min_cycle;Max_cycle;Signal;HPM_P1;HPM_P2
2023/01/29 00:02:52;;;;;;;3.95;1.80;;;-6.60;99.90;;;;;;20898734;28;20099;-55
2023/01/29 00:12:54;;;;;;;5.97;1.90;;;-6.60;99.90;;;;;;20883112;28;20033;-58
2023/01/29 00:22:55;;;;;;;4.45;1.77;;;-6.70;99.90;;;;;;20901640;28;20032;-55
2023/01/29 00:32:57;;;;;;;3.03;1.40;;;-6.70;99.90;;;;;;20900981;28;20089;-54
2023/01/29 00:53:19;;;;;;;4.05;1.83;;;-6.60;99.90;;;;;;20915582;28;20020;-55
2023/01/29 01:03:20;;;;;;;5.03;1.60;;;-6.70;99.90;;;;;;20916008;28;20475;-55
2023/01/29 01:13:22;;;;;;;3.70;1.75;;;-6.40;99.90;;;;;;20914790;28;20033;-55
2023/01/29 01:23:23;;;;;;;4.93;1.70;;;-6.60;99.90;;;;;;20914648;28;20029;-54
2023/01/29 01:33:25;;;;;;;3.92;1.60;;;-6.70;99.90;;;;;;20913464;28;20033;-56
2023/01/29 01:43:27;;;;;;;3.25;1.45;;;-6.50;99.90;;;;;;20894798;28;20040;-55
2023/01/29 01:53:37;;;;;;;5.13;1.77;;;-6.30;99.90;;;;;;20912662;28;20028;-55
2023/01/29 02:14:15;;;;;;;4.70;2.30;;;-6.40;99.90;;;;;;20910153;28;20079;-55
2023/01/29 02:24:16;;;;;;;5.03;1.80;;;-6.30;99.90;;;;;;20892551;28;20107;-56
2023/01/29 02:34:30;;;;;;;4.05;2.08;;;-6.40;99.90;;;;;;20908602;28;20091;-55
2023/01/29 02:44:57;;;;;;;3.80;1.63;;;-6.30;99.90;;;;;;20886671;28;20092;-55
2023/01/29 02:55:21;;;;;;;7.23;2.83;;;-6.20;99.90;;;;;;20882163;28;20464;-55
2023/01/29 03:05:34;;;;;;;5.65;2.63;;;-6.30;99.90;;;;;;20904004;28;20044;-55
2023/01/29 03:15:45;;;;;;;6.97;3.00;;;-6.50;99.90;;;;;;20888042;28;20037;-54
2023/01/29 03:36:38;;;;;;;9.35;3.88;;;-6.80;99.90;;;;;;20883957;28;20017;-56
2023/01/29 03:46:55;;;;;;;6.63;3.20;;;-6.90;99.90;;;;;;20885347;28;20052;-55
2023/01/29 03:57:04;;;;;;;7.38;3.50;;;-6.90;99.90;;;;;;20868716;28;20469;-55
2023/01/29 04:07:32;;;;;;;7.80;3.40;;;-6.90;99.90;;;;;;20881784;28;20385;-56
2023/01/29 04:17:40;;;;;;;7.33;2.97;;;-6.90;99.90;;;;;;20885954;28;20080;-56
2023/01/29 04:28:09;;;;;;;12.40;4.90;;;-6.90;99.90;;;;;;20896382;28;20037;-56
2023/01/29 04:38:36;;;;;;;10.70;4.60;;;-6.90;99.90;;;;;;20911379;28;20025;-57
2023/01/29 04:48:56;;;;;;;10.60;3.85;;;-6.90;99.90;;;;;;20928447;28;20033;-53
2023/01/29 04:59:11;;;;;;;13.13;4.38;;;-7.00;99.90;;;;;;20925590;28;20033;-57
2023/01/29 05:09:16;;;;;;;8.73;4.60;;;-6.80;99.90;;;;;;20908798;28;20082;-55
2023/01/29 05:19:18;;;;;;;8.40;4.25;;;-6.30;99.90;;;;;;20925470;28;20134;-54
2023/01/29 05:29:20;;;;;;;12.98;5.57;;;-6.10;99.90;;;;;;20923041;28;20024;-56
2023/01/29 05:39:22;;;;;;;9.20;3.80;;;-6.00;99.90;;;;;;20909648;28;20036;-56
2023/01/29 05:49:25;;;;;;;6.25;3.00;;;-6.30;99.90;;;;;;20913658;28;20075;-56
2023/01/29 05:59:29;;;;;;;7.22;3.40;;;-5.80;99.90;;;;;;20910910;28;20041;-54
2023/01/29 06:09:31;;;;;;;8.18;3.08;;;-6.20;99.90;;;;;;20907938;28;20083;-55
2023/01/29 06:19:33;;;;;;;8.93;3.13;;;-6.60;99.90;;;;;;20909428;28;20036;-54
2023/01/29 06:29:35;;;;;;;6.10;3.07;;;-6.90;99.90;;;;;;20910268;28;20029;-54
2023/01/29 06:39:37;;;;;;;6.90;3.13;;;-7.00;99.90;;;;;;20907863;28;20041;-52
2023/01/29 06:49:38;;;;;;;5.82;2.65;;;-6.50;99.90;;;;;;20907291;28;20037;-56
2023/01/29 06:59:40;;;;;;;6.30;3.08;;;-6.40;99.90;;;;;;20902635;28;20414;-56
2023/01/29 07:09:42;;;;;;;7.30;3.08;;;-6.70;99.90;;;;;;20904091;28;20564;-55
2023/01/29 07:19:44;;;;;;;8.52;3.78;;;-6.60;99.90;;;;;;20886624;28;20037;-56
2023/01/29 07:29:46;;;;;;;9.27;4.00;;;-6.60;99.90;;;;;;20904513;28;20041;-56
2023/01/29 07:39:48;;;;;;;9.20;4.28;;;-6.40;99.90;;;;;;20902130;28;20037;-56
2023/01/29 07:49:49;;;;;;;7.13;3.40;;;-6.00;99.90;;;;;;20903711;28;20462;-57
2023/01/29 07:59:51;;;;;;;6.50;2.90;;;-5.30;99.90;;;;;;20901487;28;20048;-58
2023/01/29 08:09:52;;;;;;;9.85;4.13;;;-4.40;99.90;;;;;;20885803;28;20037;-58
2023/01/29 08:19:54;;;;;;;6.97;2.92;;;-3.50;99.90;;;;;;20901300;28;20103;-57
2023/01/29 08:29:56;;;;;;;6.93;3.40;;;-2.80;99.90;;;;;;20901776;28;20501;-56
2023/01/29 08:39:58;;;;;;;6.10;3.28;;;-2.20;99.90;;;;;;20899410;28;20040;-57
2023/01/29 08:50:00;;;;;;;6.13;2.97;;;-1.50;99.90;;;;;;20900866;28;20025;-56
2023/01/29 09:00:02;;;;;;;6.18;3.47;;;-0.60;99.90;;;;;;20898884;28;20521;-57
2023/01/29 09:10:04;;;;;;;8.63;4.50;;;0.90;99.90;;;;;;20907713;28;20029;-56
2023/01/29 09:20:07;;;;;;;8.70;4.80;;;1.60;99.90;;;;;;20915708;28;20511;-56
2023/01/29 09:30:09;;;;;;;7.57;4.55;;;2.00;99.90;;;;;;20912978;28;20335;-56
2023/01/29 09:40:24;;;;;;;8.85;5.05;;;2.70;99.90;;;;;;20912393;28;20470;-56
2023/01/29 09:50:32;;;;;;;9.50;5.63;;;3.20;99.90;;;;;;20911817;28;20466;-57
2023/01/29 10:00:42;;;;;;;13.32;6.60;;;3.60;99.30;;;;;;20908606;28;20025;-57
2023/01/29 10:10:46;;;;;;;8.53;5.00;;;3.90;99.90;;;;;;20908943;28;20036;-56
2023/01/29 10:21:08;;;;;;;13.27;7.72;;;4.10;99.90;;;;;;20906708;28;20540;-56
2023/01/29 10:31:23;;;;;;;12.27;7.68;;;4.40;99.90;;;;;;20816541;28;20049;-56
2023/01/29 10:41:46;;;;;;;11.38;6.32;;;4.60;99.30;;;;;;20816117;28;20541;-57
2023/01/29 10:52:05;;;;;;;13.60;6.95;;;4.70;99.90;;;;;;20815608;28;20060;-55
2023/01/29 11:02:17;;;;;;;11.88;7.03;;;5.30;99.90;;;;;;20837837;28;20127;-55
2023/01/29 11:12:25;;;;;;;12.20;6.93;;;5.40;99.70;;;;;;20897667;28;20029;-56
2023/01/29 11:22:29;;;;;;;11.70;7.03;;;5.60;98.50;;;;;;20905475;28;20091;-56
2023/01/29 11:32:34;;;;;;;11.43;6.97;;;5.80;98.60;;;;;;20886537;28;20548;-56
2023/01/29 11:42:36;;;;;;;11.45;6.57;;;6.30;97.50;;;;;;20900873;28;20037;-56
2023/01/29 11:52:40;;;;;;;11.50;6.65;;;6.20;97.80;;;;;;20901944;28;20539;-55
2023/01/29 12:03:06;;;;;;;13.23;6.90;;;6.50;98.00;;;;;;20900602;28;20102;-54
2023/01/29 12:13:14;;;;;;;11.43;6.65;;;6.40;97.10;;;;;;20898966;28;20024;-53
2023/01/29 12:23:38;;;;;;;9.32;6.53;;;6.40;97.00;;;;;;20901294;28;20036;-56
2023/01/29 12:34:08;;;;;;;11.82;7.20;;;6.30;96.20;;;;;;20898511;28;20029;-53
2023/01/29 12:44:35;;;;;;;10.57;6.75;;;5.90;97.10;;;;;;20910290;28;20059;-56
2023/01/29 12:54:55;;;;;;;14.55;7.60;;;6.20;96.50;;;;;;20917574;28;20025;-55
2023/01/29 13:05:23;;;;;;;11.67;7.40;;;6.10;96.90;;;;;;20916498;28;20045;-53
2023/01/29 13:15:36;;;;;;;10.57;6.70;;;6.00;96.80;;;;;;20913577;28;20036;-53
2023/01/29 13:25:37;;;;;;;13.18;7.43;;;5.80;97.50;;;;;;20914375;28;20029;-55
2023/01/29 13:35:41;;;;;;;13.35;7.68;;;5.30;97.70;;;;;;20913660;28;20033;-55
2023/01/29 13:45:44;;;;;;;15.15;8.95;;;4.50;98.60;;;;;;20913212;28;20037;-57
2023/01/29 13:55:46;;;;;;;15.77;8.75;;;3.60;99.90;;;;;;20894451;28;20112;-57
2023/01/29 14:05:54;;;;;;;17.75;9.38;;;3.10;99.90;;;;;;20912482;28;20036;-58
2023/01/29 14:15:55;;;;;;;19.48;9.93;;;2.70;99.90;;;;;;20910984;28;20025;-58
2023/01/29 14:25:59;;;;;;;18.25;10.50;;;2.30;99.90;;;;;;20909937;28;20025;-58
2023/01/29 14:36:11;;;;;;;19.20;10.43;;;1.70;99.90;;;;;;20910173;28;20364;-58
2023/01/29 14:46:32;;;;;;;18.23;10.18;;;1.40;99.90;;;;;;20907959;28;20098;-58
2023/01/29 14:56:58;;;;;;;18.73;10.40;;;0.90;99.90;;;;;;20906409;28;20347;-59
2023/01/29 15:07:06;;;;;;;22.00;11.77;;;0.60;99.90;;;;;;20904462;28;20538;-55
2023/01/29 15:17:36;;;;;;;20.95;10.40;;;0.30;99.90;;;;;;20906314;28;20028;-57
2023/01/29 15:27:43;;;;;;;;;;;0.10;99.90;;;;;;20905297;28;20359;-57
2023/01/29 15:37:58;;;;;;;24.65;11.10;;;-0.30;99.90;;;;;;20904049;28;20312;-57
2023/01/29 15:48:05;;;;;;;25.55;11.30;;;-0.70;99.90;;;;;;20903955;28;20098;-58
2023/01/29 15:58:16;;;;;;;18.45;9.27;;;-1.10;99.90;;;;;;20905083;28;20091;-58
2023/01/29 16:08:20;;;;;;;11.20;4.82;;;-1.40;99.90;;;;;;20896593;28;20432;-58
2023/01/29 16:18:28;;;;;;;15.32;7.97;;;-1.80;99.90;;;;;;20902029;28;20029;-58
2023/01/29 16:28:30;;;;;;;10.80;5.50;;;-2.10;99.90;;;;;;20902957;28;20025;-58
2023/01/29 16:38:34;;;;;;;10.85;4.70;;;-2.50;99.90;;;;;;20900017;28;20032;-57
2023/01/29 16:48:36;;;;;;;9.02;3.85;;;-2.80;99.90;;;;;;20883136;28;20087;-57
2023/01/29 16:58:38;;;;;;;10.15;4.38;;;-3.00;99.90;;;;;;20898983;28;20037;-57
2023/01/29 17:08:43;;;;;;;10.32;4.07;;;-2.90;99.90;;;;;;20873290;28;20522;-57
2023/01/29 17:18:45;;;;;;;6.78;3.55;;;-3.00;99.90;;;;;;20897979;28;20033;-58
2023/01/29 17:28:49;;;;;;;8.30;4.00;;;-3.10;99.90;;;;;;20888446;28;20386;-56
2023/01/29 17:38:50;;;;;;;7.82;3.65;;;-3.20;99.90;;;;;;20911064;28;20394;-58
2023/01/29 17:48:52;;;;;;;5.82;3.10;;;-3.30;99.90;;;;;;20895496;28;20437;-58
2023/01/29 17:58:54;;;;;;;5.43;2.22;;;-3.30;99.90;;;;;;20912030;28;20383;-58
2023/01/29 18:08:56;;;;;;;6.07;2.92;;;-3.30;99.90;;;;;;20894014;28;20371;-56
2023/01/29 18:18:58;;;;;;;4.80;2.33;;;-3.30;99.90;;;;;;20892941;28;20359;-57
2023/01/29 18:28:59;;;;;;;5.93;2.55;;;-3.40;99.90;;;;;;20908944;28;20029;-58
2023/01/29 18:39:01;;;;;;;3.53;1.98;;;-3.40;99.90;;;;;;20908649;28;20087;-56
2023/01/29 18:49:04;;;;;;;5.07;2.63;;;-3.50;99.90;;;;;;20908942;28;20041;-57
2023/01/29 18:59:05;;;;;;;6.18;2.58;;;-3.60;99.90;;;;;;20889668;28;20074;-57
2023/01/29 19:09:08;;;;;;;6.30;2.95;;;-3.70;99.90;;;;;;20907263;28;20021;-56
2023/01/29 19:19:10;;;;;;;7.00;2.58;;;-3.70;99.90;;;;;;20906327;28;20025;-56
2023/01/29 19:29:12;;;;;;;4.72;2.47;;;-3.70;99.90;;;;;;20905428;28;20032;-56
2023/01/29 19:39:14;;;;;;;5.72;1.85;;;-3.80;99.90;;;;;;20886820;28;20037;-57
2023/01/29 19:49:16;;;;;;;7.20;2.33;;;-3.80;99.90;;;;;;20900736;28;20051;-57
2023/01/29 19:59:18;;;;;;;3.95;1.70;;;-3.60;99.90;;;;;;20903137;28;20044;-56
2023/01/29 20:09:21;;;;;;;2.25;1.35;;;-3.80;99.90;;;;;;20902740;28;20033;-56
2023/01/29 20:19:24;;;;;;;3.00;1.40;;;-3.90;99.90;;;;;;20902385;28;20173;-59
2023/01/29 20:29:26;;;;;;;2.92;1.27;;;-3.90;99.90;;;;;;20902247;28;20025;-56
2023/01/29 20:39:28;;;;;;;3.47;1.17;;;-4.00;99.90;;;;;;20901745;28;20536;-57
2023/01/29 20:49:30;;;;;;;3.55;1.45;;;-3.80;99.90;;;;;;20901012;28;20363;-56
2023/01/29 20:59:32;;;;;;;3.53;1.30;;;-3.80;99.90;;;;;;20900995;28;20106;-57
2023/01/29 21:09:34;;;;;;;2.92;1.17;;;-3.90;99.90;;;;;;20914047;28;20036;-55
2023/01/29 21:19:36;;;;;;;4.22;1.40;;;-3.90;99.90;;;;;;20915458;28;20025;-57
2023/01/29 21:29:38;;;;;;;3.50;1.30;;;-4.00;99.90;;;;;;20915035;28;20083;-57
2023/01/29 21:39:40;;;;;;;2.17;1.00;;;-4.00;99.90;;;;;;20915127;28;20385;-55
2023/01/29 21:49:43;;;;;;;3.40;1.30;;;-3.90;99.90;;;;;;20895704;28;20029;-57
2023/01/29 21:59:45;;;;;;;2.97;1.20;;;-4.00;99.90;;;;;;20895416;28;20049;-56
2023/01/29 22:09:47;;;;;;;3.53;1.40;;;-4.10;99.90;;;;;;20908925;28;20095;-56
2023/01/29 22:19:49;;;;;;;2.47;1.00;;;-4.10;99.90;;;;;;20909845;28;20025;-57
2023/01/29 22:29:51;;;;;;;2.13;0.90;;;-4.20;99.90;;;;;;20902838;28;20033;-57
2023/01/29 22:39:52;;;;;;;1.77;0.85;;;-4.20;99.90;;;;;;20909318;28;20436;-58
2023/01/29 22:49:54;;;;;;;2.70;1.00;;;-4.10;99.90;;;;;;20908699;28;20037;-56
2023/01/29 22:59:56;;;;;;;2.03;0.90;;;-4.20;99.90;;;;;;20889855;28;20045;-56
2023/01/29 23:09:58;;;;;;;0.98;0.60;;;-4.30;99.90;;;;;;20908340;28;20033;-56
2023/01/29 23:19:59;;;;;;;1.27;0.40;;;-4.20;99.90;;;;;;20906144;28;20544;-56
2023/01/29 23:30:01;;;;;;;0.88;0.40;;;-4.30;99.90;;;;;;20905470;28;20079;-57
2023/01/29 23:40:03;;;;;;;0.98;0.32;;;-4.20;99.90;;;;;;20904812;28;20094;-56
2023/01/29 23:50:05;;;;;;;1.20;0.40;;;-4.10;99.90;;;;;;20904062;28;20327;-57
